Time;durP1;ratioP1;P1;durP2;ratioP2;P2;SDS_P1;SDS_P2;PMS_P1;PMS_P2;Temp;Humidity;BMP_temperature;BMP_pressure;BME280_temperature;BME280_humidity;BME280_pressure;Samples;Min_cycle;Max_cycle;Signal;HPM_P1;HPM_P2
2021/12/07 00:00:00;;;;;;;11.38;10.18;;;1.80;99.90;;;;;;5090454;28;20196;-75
2021/12/07 00:02:28;;;;;;;11.18;10.10;;;1.80;99.90;;;;;;5088739;28;20547;-75
2021/12/07 00:04:55;;;;;;;9.98;9.05;;;1.80;99.90;;;;;;5087587;28;20287;-77
2021/12/07 00:07:22;;;;;;;10.48;9.48;;;1.70;99.90;;;;;;5088216;28;20676;-76
2021/12/07 00:09:50;;;;;;;10.60;9.52;;;1.80;99.90;;;;;;5082884;28;20228;-75
2021/12/07 00:12:17;;;;;;;10.77;9.73;;;1.80;99.90;;;;;;5091882;28;20231;-75
2021/12/07 00:14:46;;;;;;;9.48;8.52;;;1.90;99.90;;;;;;5085343;28;20674;-75
2021/12/07 00:17:14;;;;;;;8.88;7.97;;;1.80;99.90;;;;;;5083554;28;20281;-76
2021/12/07 00:19:43;;;;;;;9.07;8.27;;;1.80;99.90;;;;;;5091442;28;20200;-75
2021/12/07 00:22:12;;;;;;;9.45;8.50;;;1.80;99.90;;;;;;5086813;28;20314;-74
2021/12/07 00:24:39;;;;;;;8.98;8.07;;;1.80;99.90;;;;;;5084554;28;20204;-75
2021/12/07 00:27:06;;;;;;;9.40;8.50;;;1.90;99.90;;;;;;5093093;28;20192;-75
2021/12/07 00:29:33;;;;;;;9.00;8.20;;;1.90;99.90;;;;;;5091820;28;20763;-75
2021/12/07 00:32:19;;;;;;;7.70;7.10;;;1.90;99.90;;;;;;5092013;28;20219;-75
2021/12/07 00:35:01;;;;;;;8.77;7.95;;;1.90;99.90;;;;;;5084134;28;20296;-75
2021/12/07 00:37:30;;;;;;;8.13;7.32;;;2.00;99.90;;;;;;5092298;28;20241;-75
2021/12/07 00:39:57;;;;;;;7.88;7.13;;;2.00;99.90;;;;;;5091720;28;20229;-75
2021/12/07 00:42:25;;;;;;;8.07;7.15;;;2.20;99.90;;;;;;5090983;28;20647;-75
2021/12/07 00:44:52;;;;;;;5.65;5.15;;;2.00;99.90;;;;;;5093002;28;20192;-75
2021/12/07 00:47:21;;;;;;;5.78;5.18;;;2.20;99.90;;;;;;5083856;28;20269;-75
2021/12/07 00:49:48;;;;;;;4.72;4.32;;;2.00;99.90;;;;;;5074066;28;20255;-75
2021/12/07 00:52:15;;;;;;;4.38;3.97;;;2.10;99.90;;;;;;5082875;28;20204;-76
2021/12/07 00:54:42;;;;;;;4.82;4.43;;;2.10;99.90;;;;;;5093247;28;20200;-75
2021/12/07 00:57:09;;;;;;;5.10;4.60;;;2.10;99.90;;;;;;5086893;28;20200;-75
2021/12/07 00:59:37;;;;;;;4.28;3.90;;;2.10;99.90;;;;;;5092141;28;20240;-75
2021/12/07 01:02:05;;;;;;;4.80;4.40;;;2.10;99.90;;;;;;5090161;28;20220;-76
2021/12/07 01:04:33;;;;;;;5.20;4.70;;;2.00;99.90;;;;;;5089510;28;20195;-75
2021/12/07 01:07:05;;;;;;;6.00;5.32;;;1.90;99.90;;;;;;5091780;28;20832;-75
2021/12/07 01:09:39;;;;;;;6.72;5.43;;;1.90;99.90;;;;;;5090847;28;20191;-75
2021/12/07 01:25:56;;;;;;;6.10;5.43;;;1.80;99.90;;;;;;5090500;28;20204;-76
2021/12/07 01:28:31;;;;;;;6.32;5.72;;;1.80;99.90;;;;;;5091448;28;20245;-75
2021/12/07 01:31:07;;;;;;;5.82;5.20;;;1.80;99.90;;;;;;5083852;28;20770;-75
2021/12/07 01:36:47;;;;;;;5.47;4.97;;;1.80;99.90;;;;;;5078105;28;20192;-75
2021/12/07 01:45:15;;;;;;;5.00;4.60;;;1.90;99.90;;;;;;5088755;28;20188;-76
2021/12/07 01:47:53;;;;;;;5.45;4.95;;;1.90;99.90;;;;;;5085338;28;20207;-75
2021/12/07 01:50:34;;;;;;;4.93;4.53;;;2.00;99.90;;;;;;5089413;28;20235;-75
2021/12/07 01:53:19;;;;;;;4.38;3.97;;;2.10;99.90;;;;;;5083087;28;20233;-75
2021/12/07 02:01:18;;;;;;;5.18;3.60;;;2.30;99.90;;;;;;5044811;28;20674;-75
2021/12/07 02:03:45;;;;;;;4.10;3.70;;;2.30;99.90;;;;;;5091906;28;20288;-75
2021/12/07 02:06:13;;;;;;;3.20;2.90;;;2.30;99.90;;;;;;5085259;28;20203;-75
2021/12/07 02:08:42;;;;;;;4.47;3.80;;;2.20;99.90;;;;;;5091121;28;20204;-75
2021/12/07 02:11:09;;;;;;;3.85;3.30;;;2.20;99.90;;;;;;5090377;28;20760;-75
2021/12/07 02:16:22;;;;;;;4.25;3.85;;;2.10;99.90;;;;;;5090778;28;20192;-75
2021/12/07 02:18:49;;;;;;;3.75;3.45;;;2.10;99.90;;;;;;5086254;28;20608;-75
2021/12/07 02:21:20;;;;;;;3.63;3.33;;;2.10;99.90;;;;;;5090248;28;20219;-75
2021/12/07 02:23:48;;;;;;;4.38;3.53;;;2.10;99.90;;;;;;5090750;28;20253;-75
2021/12/07 02:26:15;;;;;;;3.80;3.50;;;2.10;99.90;;;;;;5089407;28;20239;-75
2021/12/07 02:28:42;;;;;;;4.50;4.10;;;2.10;99.90;;;;;;5089482;28;20208;-74
2021/12/07 02:31:10;;;;;;;4.05;3.65;;;2.10;99.90;;;;;;5085757;28;20652;-75
2021/12/07 02:33:38;;;;;;;4.47;4.07;;;2.10;99.90;;;;;;5089109;28;20191;-75
2021/12/07 02:36:06;;;;;;;4.82;3.92;;;2.20;99.90;;;;;;5090475;28;20204;-76
2021/12/07 02:38:35;;;;;;;4.00;3.60;;;2.20;99.90;;;;;;5091003;28;20196;-75
2021/12/07 02:41:04;;;;;;;4.10;3.80;;;2.30;99.90;;;;;;5087329;28;20294;-75
2021/12/07 02:43:31;;;;;;;4.43;4.03;;;2.20;99.90;;;;;;5090506;28;20646;-75
2021/12/07 02:45:58;;;;;;;4.05;3.70;;;2.30;99.90;;;;;;5086505;28;20275;-76
2021/12/07 02:48:26;;;;;;;4.50;3.80;;;2.30;99.90;;;;;;5090063;28;20191;-75
2021/12/07 02:50:53;;;;;;;4.13;3.78;;;2.30;99.90;;;;;;5089915;28;20339;-75
2021/12/07 02:53:24;;;;;;;5.40;3.65;;;2.30;99.90;;;;;;5088149;28;20318;-75
2021/12/07 02:55:53;;;;;;;5.70;4.30;;;2.30;99.90;;;;;;5076394;28;20205;-76
2021/12/07 02:58:20;;;;;;;4.45;4.05;;;2.30;99.90;;;;;;5088794;28;20297;-75
2021/12/07 03:00:55;;;;;;;5.70;4.32;;;2.30;99.90;;;;;;5089306;28;20645;-75
2021/12/07 03:03:22;;;;;;;4.30;3.90;;;2.30;99.90;;;;;;5085520;28;20223;-75
2021/12/07 03:05:59;;;;;;;5.25;4.65;;;2.30;99.90;;;;;;5086482;28;20191;-76
2021/12/07 03:27:56;;;;;;;4.40;3.30;;;2.20;99.90;;;;;;5087554;28;20187;-75
2021/12/07 03:30:24;;;;;;;4.35;3.67;;;2.20;99.90;;;;;;5087266;28;20226;-75
2021/12/07 03:32:51;;;;;;;3.65;3.20;;;2.20;99.90;;;;;;5093662;28;20191;-76
2021/12/07 03:35:18;;;;;;;3.15;2.90;;;2.30;99.90;;;;;;5094355;28;20227;-75
2021/12/07 03:37:46;;;;;;;6.00;3.45;;;2.30;99.90;;;;;;5088999;28;20214;-75
2021/12/07 03:40:13;;;;;;;4.75;3.17;;;2.20;99.90;;;;;;5093138;28;20212;-75
2021/12/07 03:42:41;;;;;;;3.38;3.08;;;2.20;99.90;;;;;;5084647;28;20204;-75
2021/12/07 03:45:11;;;;;;;3.47;2.67;;;2.30;99.90;;;;;;5092475;28;20540;-75
2021/12/07 03:47:39;;;;;;;4.55;2.72;;;2.30;99.90;;;;;;5092794;28;20193;-74
2021/12/07 03:50:09;;;;;;;3.00;2.70;;;2.30;99.90;;;;;;5089763;28;20208;-74
2021/12/07 03:52:37;;;;;;;2.35;2.15;;;2.30;99.90;;;;;;5088431;28;20198;-74
2021/12/07 03:55:08;;;;;;;2.67;2.47;;;2.50;99.90;;;;;;5094949;28;20234;-74
2021/12/07 03:57:36;;;;;;;2.50;2.30;;;2.40;99.90;;;;;;5092731;28;20670;-75
2021/12/07 04:00:07;;;;;;;2.30;2.10;;;2.50;99.90;;;;;;5084855;28;20224;-74
2021/12/07 04:02:39;;;;;;;2.45;2.25;;;2.40;99.90;;;;;;5093394;28;20253;-75
2021/12/07 04:05:12;;;;;;;2.90;2.40;;;2.50;99.90;;;;;;5088364;28;20200;-75
2021/12/07 04:07:39;;;;;;;2.70;2.20;;;2.50;99.90;;;;;;5090120;28;20254;-74
2021/12/07 04:10:07;;;;;;;2.40;2.10;;;2.40;99.90;;;;;;5092088;28;20215;-75
2021/12/07 04:12:34;;;;;;;2.40;2.20;;;2.50;99.90;;;;;;5088751;28;20667;-74
2021/12/07 04:15:02;;;;;;;2.20;2.00;;;2.50;99.90;;;;;;5090157;28;20290;-74
2021/12/07 04:17:29;;;;;;;3.65;2.58;;;2.50;99.90;;;;;;5090997;28;20192;-75
2021/12/07 04:19:57;;;;;;;2.60;2.00;;;2.60;99.90;;;;;;5088618;28;20246;-75
2021/12/07 04:22:25;;;;;;;4.28;2.15;;;2.60;99.90;;;;;;5077350;28;20593;-75
2021/12/07 04:24:52;;;;;;;2.90;1.85;;;2.70;99.90;;;;;;5086669;28;20205;-75
2021/12/07 04:27:20;;;;;;;1.83;1.55;;;2.70;99.90;;;;;;5087476;28;20287;-75
2021/12/07 04:29:47;;;;;;;3.67;2.05;;;2.80;99.90;;;;;;5089798;28;20208;-75
2021/12/07 04:32:14;;;;;;;3.60;1.42;;;2.80;99.90;;;;;;5088820;28;20318;-75
2021/12/07 04:34:41;;;;;;;2.05;1.30;;;2.80;99.90;;;;;;5093731;28;20261;-74
2021/12/07 04:37:10;;;;;;;2.85;1.52;;;2.80;99.90;;;;;;5091386;28;20196;-75
2021/12/07 04:39:37;;;;;;;2.45;1.80;;;2.80;99.90;;;;;;5092792;28;20204;-76
2021/12/07 04:42:05;;;;;;;1.95;1.50;;;2.80;99.90;;;;;;5090658;28;20643;-75
2021/12/07 04:44:39;;;;;;;2.78;1.70;;;2.80;99.90;;;;;;5088088;28;20245;-76
2021/12/07 04:47:12;;;;;;;2.25;1.70;;;2.80;99.90;;;;;;5086909;28;20292;-75
2021/12/07 04:57:54;;;;;;;1.40;1.30;;;2.90;99.90;;;;;;5088917;28;20741;-75
2021/12/07 05:03:00;;;;;;;1.85;1.35;;;2.90;99.90;;;;;;5174222;22;20230;-74
2021/12/07 05:05:32;;;;;;;2.10;1.65;;;2.80;99.90;;;;;;5004536;28;20199;-72
2021/12/07 05:08:04;;;;;;;1.30;1.02;;;2.70;99.90;;;;;;5009812;28;20233;-71
2021/12/07 05:10:35;;;;;;;3.17;1.45;;;2.70;99.90;;;;;;5005171;28;20276;-74
2021/12/07 05:13:26;;;;;;;2.05;1.38;;;2.60;99.90;;;;;;4990532;28;20873;-71
2021/12/07 05:16:09;;;;;;;3.90;1.40;;;2.60;99.90;;;;;;4992127;28;20195;-74
2021/12/07 05:18:54;;;;;;;2.00;1.40;;;2.60;99.90;;;;;;4973900;28;20562;-74
2021/12/07 05:24:12;;;;;;;2.58;2.05;;;2.50;99.90;;;;;;4981382;28;20195;-72
2021/12/07 05:37:45;;;;;;;2.75;2.20;;;2.70;99.90;;;;;;4982921;28;20226;-75
2021/12/07 05:40:17;;;;;;;3.28;2.10;;;2.70;99.90;;;;;;4982226;28;20199;-74
2021/12/07 05:42:44;;;;;;;3.17;2.05;;;2.70;99.90;;;;;;4984315;28;20242;-73
2021/12/07 05:45:15;;;;;;;4.47;2.00;;;2.70;99.90;;;;;;4990824;28;20199;-73
2021/12/07 05:47:42;;;;;;;3.08;2.20;;;2.80;99.90;;;;;;4988018;28;20202;-74
2021/12/07 05:50:11;;;;;;;5.25;2.53;;;2.80;99.90;;;;;;4989096;28;20211;-74
2021/12/07 05:52:38;;;;;;;3.38;2.83;;;2.90;99.90;;;;;;4980537;28;20257;-75
2021/12/07 05:55:07;;;;;;;3.25;2.40;;;2.90;99.90;;;;;;4984686;28;20198;-74
2021/12/07 05:57:36;;;;;;;3.92;2.40;;;3.00;99.90;;;;;;4985426;28;20207;-74
2021/12/07 06:00:07;;;;;;;4.25;2.65;;;3.10;99.90;;;;;;4968085;28;20200;-74
2021/12/07 06:02:34;;;;;;;5.85;2.55;;;3.20;99.90;;;;;;4960825;28;20279;-75
2021/12/07 06:05:01;;;;;;;5.35;2.33;;;3.20;99.90;;;;;;4971087;28;20199;-75
2021/12/07 06:07:28;;;;;;;2.40;2.20;;;3.30;99.90;;;;;;4982871;28;20225;-75
2021/12/07 06:09:55;;;;;;;5.28;2.70;;;3.30;99.90;;;;;;4978097;28;20293;-75
2021/12/07 06:12:22;;;;;;;3.30;3.00;;;3.30;99.90;;;;;;4980775;28;20230;-75
2021/12/07 06:14:54;;;;;;;4.15;2.35;;;3.40;99.90;;;;;;4979409;28;20195;-75
2021/12/07 06:17:22;;;;;;;3.80;2.47;;;3.40;99.90;;;;;;4981219;28;20201;-75
2021/12/07 06:19:49;;;;;;;4.63;2.30;;;3.50;99.90;;;;;;4981918;28;20253;-74
2021/12/07 06:22:16;;;;;;;5.53;2.22;;;3.60;99.90;;;;;;4975648;28;20227;-74
2021/12/07 06:24:43;;;;;;;5.05;2.28;;;3.70;99.90;;;;;;4981530;28;20202;-74
2021/12/07 06:27:10;;;;;;;3.08;2.15;;;3.80;99.90;;;;;;4980631;28;20207;-74
2021/12/07 06:29:37;;;;;;;4.90;2.03;;;3.70;99.90;;;;;;4975380;28;20237;-74
2021/12/07 06:32:06;;;;;;;4.25;2.00;;;3.80;99.90;;;;;;4981750;28;20231;-72
2021/12/07 06:34:34;;;;;;;3.70;1.55;;;3.80;99.90;;;;;;4975302;28;20207;-75
2021/12/07 06:37:01;;;;;;;5.50;2.38;;;3.80;99.90;;;;;;4977118;28;20680;-75
2021/12/07 06:39:28;;;;;;;3.40;1.80;;;3.80;99.90;;;;;;4977294;28;20195;-75
2021/12/07 06:41:55;;;;;;;2.90;1.85;;;3.80;99.90;;;;;;4983923;28;20218;-75
2021/12/07 06:44:22;;;;;;;2.25;1.83;;;3.80;99.90;;;;;;4981934;28;20212;-75
2021/12/07 06:46:50;;;;;;;4.15;2.00;;;3.80;99.90;;;;;;4982970;28;20206;-75
2021/12/07 06:49:19;;;;;;;5.80;2.58;;;3.80;99.90;;;;;;4982184;28;20250;-75
2021/12/07 06:51:47;;;;;;;4.93;2.33;;;3.80;99.90;;;;;;4974311;28;20317;-73
2021/12/07 06:54:14;;;;;;;3.25;1.98;;;3.80;99.90;;;;;;4981731;28;20665;-74
2021/12/07 06:56:41;;;;;;;3.83;2.03;;;3.80;99.90;;;;;;4982886;28;20318;-73
2021/12/07 06:59:08;;;;;;;3.58;2.40;;;3.80;99.90;;;;;;4980521;28;20263;-73
2021/12/07 07:01:35;;;;;;;3.60;1.92;;;3.80;99.90;;;;;;4981648;28;20507;-72
2021/12/07 07:04:03;;;;;;;5.28;2.40;;;3.80;99.90;;;;;;4985768;28;20207;-73
2021/12/07 07:06:31;;;;;;;3.70;2.00;;;3.70;99.90;;;;;;4988157;28;20203;-73
2021/12/07 07:08:58;;;;;;;4.40;2.42;;;3.70;99.90;;;;;;4992246;28;20207;-73
2021/12/07 07:11:25;;;;;;;5.60;2.35;;;3.70;99.90;;;;;;4986413;28;20219;-74
2021/12/07 07:13:52;;;;;;;3.95;2.40;;;3.60;99.90;;;;;;4986048;28;20195;-73
2021/12/07 07:16:19;;;;;;;6.55;2.58;;;3.60;99.90;;;;;;4989488;28;20210;-73
2021/12/07 07:18:46;;;;;;;6.30;3.00;;;3.40;99.90;;;;;;4990825;28;20646;-74
2021/12/07 07:21:13;;;;;;;8.13;2.78;;;3.30;99.90;;;;;;4987680;28;20222;-74
2021/12/07 07:23:41;;;;;;;5.13;2.55;;;3.30;99.90;;;;;;4984764;28;20203;-77
2021/12/07 07:26:08;;;;;;;3.58;2.55;;;3.20;99.90;;;;;;4990189;28;20307;-79
2021/12/07 07:28:36;;;;;;;5.45;2.60;;;3.30;99.90;;;;;;4988047;28;20199;-72
2021/12/07 07:31:07;;;;;;;7.07;3.63;;;3.30;99.90;;;;;;4990836;28;20645;-72
2021/12/07 07:33:33;;;;;;;4.68;2.70;;;3.40;99.90;;;;;;4993515;28;20748;-73
2021/12/07 07:36:00;;;;;;;5.70;3.28;;;3.40;99.90;;;;;;4991473;28;20245;-73
2021/12/07 07:38:28;;;;;;;5.40;2.75;;;3.50;99.90;;;;;;4991956;28;20195;-73
2021/12/07 07:40:56;;;;;;;6.00;2.70;;;3.50;99.90;;;;;;4991774;28;20652;-73
2021/12/07 07:43:24;;;;;;;4.53;2.90;;;3.60;99.90;;;;;;4992180;28;20203;-72
2021/12/07 07:45:53;;;;;;;7.25;2.50;;;3.60;99.90;;;;;;4985503;28;20220;-73
2021/12/07 07:48:22;;;;;;;4.65;2.35;;;3.70;99.90;;;;;;4988725;28;20241;-73
2021/12/07 07:50:50;;;;;;;4.70;2.35;;;3.70;99.90;;;;;;4986084;28;20704;-73
2021/12/07 07:53:18;;;;;;;5.78;2.53;;;3.70;99.90;;;;;;4984059;28;20227;-72
2021/12/07 07:55:44;;;;;;;4.80;2.10;;;3.70;99.90;;;;;;4992893;28;20321;-72
2021/12/07 07:58:13;;;;;;;5.13;2.28;;;3.70;99.90;;;;;;4984607;28;20287;-73
2021/12/07 08:00:41;;;;;;;4.03;2.20;;;3.60;99.90;;;;;;4987780;28;20230;-72
2021/12/07 08:03:09;;;;;;;5.18;2.47;;;3.60;99.90;;;;;;4989315;28;20593;-75
2021/12/07 08:05:36;;;;;;;4.95;2.30;;;3.70;99.90;;;;;;4980692;28;20202;-74
2021/12/07 08:08:03;;;;;;;5.60;2.28;;;3.70;99.90;;;;;;4985090;28;20223;-74
2021/12/07 08:10:31;;;;;;;5.40;2.10;;;3.80;99.90;;;;;;4982759;28;20497;-74
2021/12/07 08:13:01;;;;;;;4.57;2.30;;;3.80;99.90;;;;;;4990613;28;20241;-74
2021/12/07 08:15:31;;;;;;;5.05;2.22;;;3.80;99.90;;;;;;4991239;28;20195;-74
2021/12/07 08:17:58;;;;;;;4.32;2.25;;;3.80;99.90;;;;;;4992051;28;20231;-74
2021/12/07 08:20:26;;;;;;;7.05;2.30;;;3.80;99.90;;;;;;4987091;28;20717;-74
2021/12/07 08:22:53;;;;;;;4.88;2.05;;;3.90;99.90;;;;;;4988209;28;20207;-74
2021/12/07 08:25:20;;;;;;;5.05;2.00;;;3.90;99.90;;;;;;4991691;28;20218;-74
2021/12/07 08:27:47;;;;;;;4.80;2.42;;;3.90;99.90;;;;;;4987349;28;20262;-74
2021/12/07 08:30:15;;;;;;;4.40;2.33;;;4.00;99.90;;;;;;4993013;28;20203;-74
2021/12/07 08:32:45;;;;;;;8.38;3.15;;;4.10;99.90;;;;;;4988569;28;20679;-74
2021/12/07 08:35:14;;;;;;;7.60;2.78;;;4.10;99.90;;;;;;4989677;28;20282;-74
2021/12/07 08:37:41;;;;;;;2.90;2.22;;;4.10;99.90;;;;;;4991013;28;20195;-74
2021/12/07 08:40:09;;;;;;;6.18;2.50;;;4.10;99.90;;;;;;4989639;28;20667;-75
2021/12/07 08:42:37;;;;;;;3.72;2.00;;;4.10;99.90;;;;;;4991149;28;20214;-74
2021/12/07 08:45:06;;;;;;;8.43;2.15;;;4.20;99.90;;;;;;4990972;28;20222;-73
2021/12/07 08:47:32;;;;;;;4.30;2.00;;;4.30;99.90;;;;;;4989468;28;20207;-73
2021/12/07 08:50:01;;;;;;;6.32;2.10;;;4.30;99.90;;;;;;4988631;28;20283;-73
2021/12/07 08:52:28;;;;;;;6.82;2.35;;;4.40;99.90;;;;;;4984725;28;20281;-73
2021/12/07 09:00:24;;;;;;;4.75;1.90;;;4.60;99.90;;;;;;4987776;28;20211;-73
2021/12/07 09:02:51;;;;;;;7.80;2.70;;;4.60;99.90;;;;;;4984917;28;20207;-73
2021/12/07 09:05:20;;;;;;;4.25;1.85;;;4.70;99.90;;;;;;4988159;28;20201;-73
2021/12/07 09:07:47;;;;;;;4.53;1.63;;;4.60;99.90;;;;;;4993123;28;20203;-73
2021/12/07 09:10:15;;;;;;;5.38;1.80;;;4.60;99.90;;;;;;4987734;28;20314;-73
2021/12/07 09:12:42;;;;;;;5.35;1.90;;;4.70;99.90;;;;;;4979219;28;20222;-73
2021/12/07 09:15:10;;;;;;;4.90;2.30;;;4.70;99.90;;;;;;4976109;28;20204;-73
2021/12/07 09:17:37;;;;;;;4.25;2.03;;;4.70;99.90;;;;;;4978491;28;20676;-73
2021/12/07 09:20:05;;;;;;;3.30;1.60;;;4.60;99.90;;;;;;4991994;28;20647;-73
2021/12/07 09:22:33;;;;;;;4.05;1.50;;;4.60;99.90;;;;;;4990414;28;20210;-73
2021/12/07 09:25:01;;;;;;;5.13;2.10;;;4.50;99.90;;;;;;4986147;28;20196;-73
2021/12/07 09:27:28;;;;;;;5.10;2.20;;;4.50;99.90;;;;;;4991378;28;20201;-73
2021/12/07 09:29:55;;;;;;;5.35;1.92;;;4.50;99.90;;;;;;4980153;28;20195;-73
2021/12/07 09:32:22;;;;;;;5.75;1.77;;;4.60;99.90;;;;;;4985411;28;20223;-73
2021/12/07 09:34:49;;;;;;;3.58;1.80;;;4.80;99.90;;;;;;4989669;28;20201;-73
2021/12/07 09:37:17;;;;;;;3.95;1.55;;;5.60;99.90;;;;;;4991281;28;20253;-73
2021/12/07 09:39:45;;;;;;;6.95;1.83;;;6.70;99.90;;;;;;4984722;28;20500;-74
2021/12/07 09:42:12;;;;;;;5.78;1.50;;;8.00;99.90;;;;;;4986547;28;20686;-73
2021/12/07 09:44:39;;;;;;;4.78;1.60;;;8.80;99.90;;;;;;4988354;28;20294;-74
2021/12/07 09:47:06;;;;;;;3.20;1.80;;;8.90;99.90;;;;;;4985892;28;20203;-74
2021/12/07 09:49:33;;;;;;;3.95;1.52;;;9.10;99.90;;;;;;4983603;28;20206;-74
2021/12/07 09:52:00;;;;;;;3.28;1.40;;;9.30;99.90;;;;;;4984540;28;20214;-74
2021/12/07 09:54:27;;;;;;;3.50;2.17;;;9.40;99.90;;;;;;4986173;28;20664;-74
2021/12/07 09:56:55;;;;;;;5.13;1.92;;;9.60;99.90;;;;;;4987944;28;20683;-73
2021/12/07 09:59:22;;;;;;;2.42;1.42;;;9.20;99.90;;;;;;4988542;28;20209;-73
2021/12/07 10:01:49;;;;;;;3.88;1.55;;;9.50;99.90;;;;;;4989608;28;20227;-73
2021/12/07 10:04:18;;;;;;;6.30;1.73;;;9.70;99.90;;;;;;4985467;28;20222;-77
2021/12/07 10:06:46;;;;;;;4.18;1.63;;;9.50;99.90;;;;;;4988737;28;20650;-73
2021/12/07 10:09:13;;;;;;;2.63;1.25;;;9.40;99.90;;;;;;4989747;28;20598;-73
2021/12/07 10:11:40;;;;;;;3.53;1.30;;;9.60;99.90;;;;;;4987102;28;20225;-74
2021/12/07 10:14:08;;;;;;;4.53;1.75;;;9.60;99.90;;;;;;4982536;28;20230;-74
2021/12/07 10:16:35;;;;;;;2.33;1.90;;;9.40;99.90;;;;;;4980832;28;20215;-74
2021/12/07 10:19:03;;;;;;;2.80;1.65;;;9.30;99.90;;;;;;4982738;28;20290;-74
2021/12/07 10:21:38;;;;;;;3.38;1.58;;;9.20;99.90;;;;;;4984954;28;20223;-73
2021/12/07 10:24:09;;;;;;;4.40;1.50;;;8.90;99.90;;;;;;4987212;28;20203;-74
2021/12/07 10:26:39;;;;;;;4.03;1.50;;;9.00;99.90;;;;;;4982323;28;20254;-74
2021/12/07 10:29:12;;;;;;;4.32;1.60;;;9.10;99.90;;;;;;4985577;28;20206;-74
2021/12/07 10:31:41;;;;;;;3.17;1.65;;;9.60;99.90;;;;;;4986362;28;20212;-74
2021/12/07 10:34:11;;;;;;;4.20;1.60;;;10.10;99.90;;;;;;4987276;28;20281;-74
2021/12/07 10:36:42;;;;;;;4.90;1.60;;;10.60;99.90;;;;;;4988359;28;20634;-74
2021/12/07 10:39:12;;;;;;;2.45;1.23;;;10.90;99.90;;;;;;4988366;28;20202;-74
2021/12/07 10:41:41;;;;;;;5.03;1.63;;;11.10;98.70;;;;;;4981885;28;20227;-76
2021/12/07 10:44:12;;;;;;;3.97;1.50;;;10.70;98.70;;;;;;4983172;28;20206;-73
2021/12/07 10:46:46;;;;;;;4.07;1.52;;;10.80;98.40;;;;;;4980546;28;20199;-74
2021/12/07 10:49:35;;;;;;;4.18;1.83;;;11.10;97.20;;;;;;4983478;28;20191;-73
2021/12/07 10:52:23;;;;;;;3.63;1.50;;;10.70;97.10;;;;;;4980189;28;20215;-73
2021/12/07 10:54:53;;;;;;;3.47;1.75;;;10.30;96.70;;;;;;4986072;28;20210;-74
2021/12/07 10:57:23;;;;;;;5.10;1.50;;;9.50;98.60;;;;;;4987856;28;20199;-73
2021/12/07 10:59:55;;;;;;;4.45;1.38;;;8.70;99.80;;;;;;4982405;28;20205;-74
2021/12/07 11:02:25;;;;;;;2.88;1.27;;;8.10;99.90;;;;;;4977865;28;20214;-73
2021/12/07 11:04:52;;;;;;;3.88;1.65;;;7.80;99.90;;;;;;4986156;28;20218;-73
2021/12/07 11:07:22;;;;;;;4.18;1.60;;;7.60;99.90;;;;;;4986610;28;20330;-73
2021/12/07 11:09:59;;;;;;;4.03;1.50;;;7.60;99.90;;;;;;4987930;28;20201;-73
2021/12/07 11:12:31;;;;;;;3.78;1.50;;;7.20;99.90;;;;;;4978719;28;20203;-73
2021/12/07 11:15:01;;;;;;;3.53;1.60;;;7.00;99.90;;;;;;4989402;28;20282;-73
2021/12/07 11:17:30;;;;;;;3.05;1.50;;;7.40;99.90;;;;;;4981171;28;20286;-74
2021/12/07 11:19:58;;;;;;;3.03;1.67;;;8.30;99.90;;;;;;4980779;28;20582;-73
2021/12/07 11:22:30;;;;;;;3.78;1.77;;;9.00;99.90;;;;;;4982769;28;20206;-73
2021/12/07 11:25:00;;;;;;;2.63;1.70;;;9.60;99.90;;;;;;4984277;28;20226;-74
2021/12/07 11:30:17;;;;;;;5.50;1.63;;;9.20;99.80;;;;;;4990932;23;20306;-72
2021/12/07 11:32:48;;;;;;;3.70;1.65;;;8.70;99.90;;;;;;5001686;28;20294;-74
2021/12/07 11:35:19;;;;;;;3.47;1.10;;;8.60;99.90;;;;;;5008665;28;20203;-75
2021/12/07 11:37:48;;;;;;;2.88;1.60;;;8.40;99.90;;;;;;5001676;28;20187;-75
2021/12/07 11:40:18;;;;;;;3.65;1.40;;;8.60;99.90;;;;;;4997536;28;20773;-73
2021/12/07 11:42:46;;;;;;;2.75;1.10;;;9.10;99.90;;;;;;4990108;28;20201;-72
2021/12/07 11:45:18;;;;;;;2.63;1.20;;;9.80;99.70;;;;;;4991334;28;20204;-72
2021/12/07 11:47:47;;;;;;;4.53;1.40;;;10.00;97.10;;;;;;4983873;28;20199;-73
2021/12/07 11:50:19;;;;;;;2.65;1.38;;;9.90;97.80;;;;;;4983633;28;20281;-73
2021/12/07 11:52:49;;;;;;;4.50;1.85;;;9.40;98.10;;;;;;4987542;28;20218;-75
2021/12/07 11:55:17;;;;;;;3.13;1.30;;;8.60;97.40;;;;;;4984037;28;20291;-74
2021/12/07 11:57:46;;;;;;;4.07;1.50;;;8.00;98.40;;;;;;4986165;28;20286;-74
2021/12/07 12:00:19;;;;;;;3.22;1.52;;;7.80;99.20;;;;;;4987237;28;20223;-72
2021/12/07 12:02:46;;;;;;;4.50;1.20;;;8.60;99.20;;;;;;4987788;28;20202;-74
2021/12/07 12:05:13;;;;;;;3.10;1.25;;;9.50;97.40;;;;;;4982200;28;20203;-72
2021/12/07 12:07:41;;;;;;;2.08;1.23;;;10.40;96.80;;;;;;4983913;28;20199;-72
2021/12/07 12:10:11;;;;;;;2.92;1.35;;;11.00;95.80;;;;;;4987385;28;20271;-75
2021/12/07 12:12:50;;;;;;;2.83;1.20;;;10.80;94.80;;;;;;4979804;28;20274;-72
2021/12/07 12:15:36;;;;;;;3.05;1.50;;;10.60;95.00;;;;;;4989313;28;20684;-74
2021/12/07 12:18:13;;;;;;;4.25;1.40;;;10.30;95.50;;;;;;4983259;28;20201;-72
2021/12/07 12:20:56;;;;;;;4.25;1.98;;;10.00;95.50;;;;;;4981072;28;20224;-75
2021/12/07 12:23:32;;;;;;;5.05;1.98;;;9.90;95.80;;;;;;4981265;28;20238;-75
2021/12/07 12:26:03;;;;;;;2.65;1.27;;;9.80;96.00;;;;;;4983667;28;20238;-74
2021/12/07 12:28:35;;;;;;;2.75;1.10;;;9.10;96.70;;;;;;4981631;28;20294;-75
2021/12/07 12:31:04;;;;;;;3.35;1.20;;;8.80;97.50;;;;;;4990669;28;20227;-72
2021/12/07 12:33:46;;;;;;;2.80;1.20;;;8.90;98.30;;;;;;4989611;28;20234;-75
2021/12/07 12:36:13;;;;;;;4.45;1.55;;;9.20;96.90;;;;;;4988064;28;20719;-72
2021/12/07 12:38:48;;;;;;;3.30;1.63;;;9.60;97.10;;;;;;4990044;28;20211;-73
2021/12/07 12:41:16;;;;;;;5.28;1.92;;;9.90;97.00;;;;;;4979329;28;20218;-73
2021/12/07 12:43:47;;;;;;;2.85;1.23;;;9.90;96.70;;;;;;4977956;28;20208;-72
2021/12/07 12:46:19;;;;;;;4.85;1.70;;;9.70;97.00;;;;;;4991856;28;20666;-71
2021/12/07 12:48:49;;;;;;;3.78;1.33;;;9.50;97.50;;;;;;4984927;28;20218;-72
2021/12/07 12:51:17;;;;;;;3.75;1.58;;;9.40;97.90;;;;;;4991376;28;20219;-71
2021/12/07 12:53:46;;;;;;;4.07;1.70;;;9.40;97.10;;;;;;4982727;28;20314;-71
2021/12/07 12:56:15;;;;;;;2.35;1.65;;;9.50;96.30;;;;;;4987721;28;20275;-72
2021/12/07 12:58:45;;;;;;;3.55;1.77;;;9.70;96.80;;;;;;4980752;28;20278;-72
2021/12/07 13:01:17;;;;;;;3.67;1.20;;;9.90;96.20;;;;;;4978173;28;20220;-85
2021/12/07 13:04:04;;;;;;;3.10;1.70;;;10.30;94.80;;;;;;4983571;28;20212;-87
2021/12/07 13:06:52;;;;;;;1.67;1.05;;;10.40;93.80;;;;;;4984030;28;20195;-87
2021/12/07 13:09:26;;;;;;;3.58;1.35;;;9.90;94.20;;;;;;4979035;28;20644;-88
2021/12/07 13:11:56;;;;;;;2.08;1.00;;;9.50;95.30;;;;;;4982199;28;20286;-87
2021/12/07 13:14:32;;;;;;;6.05;1.80;;;9.20;95.10;;;;;;4982379;28;20231;-88
2021/12/07 13:17:09;;;;;;;2.63;1.00;;;8.70;95.80;;;;;;4982972;28;20227;-87
2021/12/07 13:20:10;;;;;;;3.40;1.35;;;8.50;95.90;;;;;;4977669;28;20218;-89
2021/12/07 13:22:40;;;;;;;3.28;1.58;;;8.30;97.00;;;;;;4981369;28;20199;-82
2021/12/07 13:25:10;;;;;;;4.43;1.20;;;8.60;96.90;;;;;;4989172;28;20687;-88
2021/12/07 13:27:37;;;;;;;2.85;1.42;;;9.10;95.30;;;;;;4985282;28;20610;-88
2021/12/07 13:30:08;;;;;;;4.32;1.50;;;9.40;96.30;;;;;;4972315;28;20219;-87
2021/12/07 13:32:36;;;;;;;4.13;1.27;;;9.60;95.80;;;;;;4983989;28;20207;-86
2021/12/07 13:35:07;;;;;;;2.72;1.20;;;9.40;95.00;;;;;;4987097;28;20313;-82
2021/12/07 13:37:45;;;;;;;3.30;1.30;;;9.20;95.40;;;;;;4986869;28;20710;-82
2021/12/07 13:40:20;;;;;;;3.75;1.10;;;9.20;94.20;;;;;;4981993;28;20230;-83
2021/12/07 13:42:50;;;;;;;3.90;1.48;;;9.30;95.30;;;;;;4985696;28;20610;-83
2021/12/07 13:45:19;;;;;;;3.00;1.20;;;9.10;94.90;;;;;;4976480;28;20204;-83
2021/12/07 13:47:50;;;;;;;2.22;1.10;;;9.00;95.60;;;;;;4986552;28;20203;-84
2021/12/07 13:50:20;;;;;;;2.10;1.23;;;8.80;95.10;;;;;;4986703;28;20227;-84
2021/12/07 13:52:49;;;;;;;2.03;1.30;;;8.30;95.70;;;;;;4986472;28;20736;-84
2021/12/07 13:55:19;;;;;;;1.90;1.20;;;7.90;96.10;;;;;;4990082;28;20223;-82
2021/12/07 13:57:48;;;;;;;3.80;1.50;;;7.60;96.80;;;;;;4986174;28;20278;-83
2021/12/07 14:00:18;;;;;;;3.80;1.60;;;7.60;97.60;;;;;;4978138;28;20223;-83
2021/12/07 14:02:53;;;;;;;4.28;1.20;;;7.80;97.30;;;;;;4977324;28;20378;-83
2021/12/07 14:05:23;;;;;;;2.65;1.35;;;8.10;97.50;;;;;;4974617;28;20666;-83
2021/12/07 14:07:52;;;;;;;2.80;1.40;;;8.30;97.20;;;;;;4976598;28;20202;-83
2021/12/07 14:10:22;;;;;;;2.53;1.15;;;8.60;97.60;;;;;;4982722;28;20220;-84
2021/12/07 14:12:53;;;;;;;2.45;1.10;;;8.90;96.50;;;;;;4984719;28;20242;-83
2021/12/07 14:15:22;;;;;;;3.47;1.20;;;9.20;96.10;;;;;;4982795;28;20590;-83
2021/12/07 14:17:54;;;;;;;4.18;1.45;;;9.30;95.10;;;;;;4982469;28;20207;-83
2021/12/07 14:20:37;;;;;;;4.40;1.20;;;9.10;95.70;;;;;;4977583;28;20216;-83
2021/12/07 14:23:15;;;;;;;4.20;1.40;;;8.70;96.10;;;;;;4975670;28;20226;-83
2021/12/07 14:25:48;;;;;;;3.25;1.00;;;8.30;96.50;;;;;;4985157;28;20207;-83
2021/12/07 14:28:27;;;;;;;4.07;1.40;;;7.90;97.30;;;;;;4983296;28;20274;-89
2021/12/07 14:30:59;;;;;;;4.35;1.48;;;7.40;97.50;;;;;;4974514;28;20331;-82